Search for airport 
image banner adimage banner adimage banner ad
image banner ad

16CL - Mother Lode Service Center

Located in Angels Camp, United States

ICAO - 16CL, IATA -

Data provided by Airmate  

General information

Coordinates: N38°5'4" W120°32'17"
Elevation is 1560 feet MSL.
Magnetic variation is 16° East
View others Airports in California

Operational data

Special qualification required
Current time UTC:
Current local time:
METAR: KCPU 231435Z AUTO 00000KT 10SM CLR 17/05 A2996 RMK AO2 T01680048
View NOTAMs / SUP AIP / TFR affecting this airport [VIEW]
Communications frequencies: [VIEW]

Runways:

Airport contact information

Address: Angels Camp United States

Satellite view of 16CL